Time;durP1;ratioP1;P1;durP2;ratioP2;P2;SDS_P1;SDS_P2;PMS_P1;PMS_P2;Temp;Humidity;BMP_temperature;BMP_pressure;BME280_temperature;BME280_humidity;BME280_pressure;Samples;Min_cycle;Max_cycle;Signal;HPM_P1;HPM_P2
2022/01/22 00:01:14;;;;;;;34.53;19.87;;;5.10;99.90;;;;;;2610322;54;20483;-75
2022/01/22 00:03:41;;;;;;;26.93;18.03;;;5.10;99.90;;;;;;2613480;54;20412;-75
2022/01/22 00:06:06;;;;;;;28.73;16.97;;;5.10;99.90;;;;;;2614519;54;20179;-76
2022/01/22 00:08:33;;;;;;;18.57;14.30;;;5.10;99.90;;;;;;2611627;47;20457;-76
2022/01/22 00:10:59;;;;;;;33.67;18.80;;;5.00;99.90;;;;;;2611076;54;20400;-76
2022/01/22 00:16:15;;;;;;;29.07;16.97;;;5.10;99.90;;;;;;2611879;54;20411;-76
2022/01/22 00:18:41;;;;;;;28.33;18.67;;;5.00;99.90;;;;;;2612394;54;20438;-76
2022/01/22 00:21:07;;;;;;;22.23;15.97;;;5.00;99.90;;;;;;2611174;54;20398;-76
2022/01/22 00:23:33;;;;;;;21.83;15.50;;;5.10;99.90;;;;;;2614249;54;20651;-76
2022/01/22 00:25:59;;;;;;;27.10;17.13;;;5.10;99.90;;;;;;2614981;46;20391;-76
2022/01/22 00:28:24;;;;;;;14.90;11.57;;;5.10;99.90;;;;;;2613587;47;20590;-76
2022/01/22 00:30:51;;;;;;;20.43;15.80;;;5.10;99.90;;;;;;2612901;47;20265;-77
2022/01/22 00:33:17;;;;;;;25.80;15.87;;;5.10;99.90;;;;;;2612565;54;20419;-77
2022/01/22 00:35:44;;;;;;;28.40;10.90;;;5.10;99.90;;;;;;2612154;54;20396;-77
2022/01/22 00:38:10;;;;;;;26.90;17.70;;;5.00;99.90;;;;;;2612916;39;20202;-75
2022/01/22 00:40:36;;;;;;;23.20;17.20;;;5.00;99.90;;;;;;2612657;54;20414;-77
2022/01/22 00:43:02;;;;;;;20.17;15.37;;;5.10;99.90;;;;;;2611344;46;20979;-75
2022/01/22 00:45:29;;;;;;;21.83;14.80;;;5.00;99.90;;;;;;2610929;46;20449;-76
2022/01/22 00:47:55;;;;;;;23.20;13.67;;;5.00;99.90;;;;;;2612941;54;20367;-75
2022/01/22 00:50:23;;;;;;;19.97;13.37;;;4.90;99.90;;;;;;2612131;47;20431;-75
2022/01/22 00:52:50;;;;;;;25.77;12.30;;;4.90;99.90;;;;;;2611782;39;20780;-75
2022/01/22 00:55:17;;;;;;;20.20;17.60;;;4.90;99.90;;;;;;2611939;54;20422;-75
2022/01/22 00:57:43;;;;;;;27.13;14.10;;;5.00;99.90;;;;;;2612301;47;20947;-75
2022/01/22 01:00:14;;;;;;;25.67;16.23;;;4.90;99.90;;;;;;2611882;46;20431;-77
2022/01/22 01:02:40;;;;;;;24.00;16.90;;;4.90;99.90;;;;;;2613933;54;20407;-76
2022/01/22 01:05:09;;;;;;;26.23;15.97;;;5.00;99.90;;;;;;2614529;47;20557;-76
2022/01/22 01:07:36;;;;;;;28.27;15.53;;;5.00;99.90;;;;;;2615700;54;20403;-76
2022/01/22 01:10:03;;;;;;;24.27;14.63;;;5.00;99.90;;;;;;2614111;47;20987;-76
2022/01/22 01:12:31;;;;;;;26.37;13.47;;;5.00;99.90;;;;;;2615321;54;20400;-76
2022/01/22 01:32:12;;;;;;;25.67;13.53;;;5.10;99.90;;;;;;2614474;39;20864;-75
2022/01/22 01:34:03;;;;;;;8.37;7.50;;;5.00;99.90;;;;;;2611138;54;21014;-76
2022/01/22 01:36:29;;;;;;;12.93;7.07;;;5.10;99.90;;;;;;2610743;47;20398;-76
2022/01/22 01:38:59;;;;;;;13.03;9.97;;;4.90;99.90;;;;;;2612902;54;20559;-75
2022/01/22 01:41:48;;;;;;;8.63;7.00;;;4.90;99.90;;;;;;2613254;54;20411;-76
2022/01/22 01:44:15;;;;;;;29.47;15.80;;;4.90;99.90;;;;;;2614197;39;20814;-75
2022/01/22 01:46:47;;;;;;;16.20;13.07;;;4.90;99.90;;;;;;2613879;54;20411;-75
2022/01/22 01:49:15;;;;;;;25.70;17.23;;;4.90;99.90;;;;;;2615311;54;20415;-76
2022/01/22 01:51:41;;;;;;;20.70;15.53;;;4.90;99.90;;;;;;2614049;46;20435;-76
2022/01/22 01:54:26;;;;;;;24.03;15.40;;;5.10;99.90;;;;;;2608975;54;21060;-76
2022/01/22 01:59:39;;;;;;;26.80;13.57;;;5.00;99.90;;;;;;2614866;39;20789;-76
2022/01/22 02:02:05;;;;;;;25.30;17.63;;;5.00;99.90;;;;;;2615264;54;20411;-75
2022/01/22 02:04:31;;;;;;;22.73;15.17;;;5.00;99.90;;;;;;2614790;47;20407;-74
2022/01/22 02:06:57;;;;;;;20.90;15.80;;;5.00;99.90;;;;;;2615264;54;21022;-75
2022/01/22 02:09:26;;;;;;;24.60;13.70;;;5.00;99.90;;;;;;2614990;46;20457;-74
2022/01/22 02:12:00;;;;;;;30.40;18.80;;;5.00;99.90;;;;;;2613702;46;20932;-75
2022/01/22 02:25:56;;;;;;;24.30;17.97;;;5.10;99.90;;;;;;2614993;47;20400;-75
2022/01/22 02:28:23;;;;;;;30.63;16.83;;;5.10;99.90;;;;;;2613153;49;20420;-75
2022/01/22 02:30:56;;;;;;;27.13;19.30;;;5.00;99.90;;;;;;2614087;46;20504;-75
2022/01/22 02:36:31;;;;;;;29.20;21.30;;;5.10;99.90;;;;;;2613924;54;20440;-75
2022/01/22 02:41:34;;;;;;;37.60;24.17;;;5.00;99.90;;;;;;2614663;39;20820;-75
2022/01/22 02:44:01;;;;;;;22.97;13.40;;;5.10;99.90;;;;;;2614477;54;20462;-75
2022/01/22 02:46:28;;;;;;;34.60;19.30;;;5.10;99.90;;;;;;2614437;51;20435;-75
2022/01/22 02:48:56;;;;;;;45.27;23.23;;;5.10;99.90;;;;;;2614036;54;20486;-75
2022/01/22 02:51:27;;;;;;;32.83;21.40;;;5.10;99.90;;;;;;2612930;54;21007;-75
2022/01/22 02:53:57;;;;;;;32.83;20.43;;;5.20;99.90;;;;;;2614191;47;20967;-75
2022/01/22 02:56:24;;;;;;;34.40;22.70;;;5.20;99.90;;;;;;2614638;39;20812;-75
2022/01/22 02:58:51;;;;;;;28.60;17.63;;;5.10;99.90;;;;;;2615155;47;21547;-74
2022/01/22 03:01:19;;;;;;;33.20;20.90;;;5.00;99.90;;;;;;2614479;54;20450;-74
2022/01/22 03:03:46;;;;;;;24.97;15.60;;;5.10;99.90;;;;;;2614336;46;20423;-75
2022/01/22 03:06:13;;;;;;;32.40;16.87;;;5.10;99.90;;;;;;2613082;54;20453;-75
2022/01/22 03:08:41;;;;;;;39.40;22.70;;;5.10;99.90;;;;;;2613231;54;20424;-74
2022/01/22 03:11:17;;;;;;;30.90;19.50;;;5.10;99.90;;;;;;2613863;54;20528;-75
2022/01/22 03:18:49;;;;;;;30.00;16.40;;;5.10;99.90;;;;;;2614164;54;20661;-75
2022/01/22 03:29:30;;;;;;;22.27;17.30;;;5.00;99.90;;;;;;2614912;47;20535;-75
2022/01/22 03:31:56;;;;;;;32.63;20.10;;;5.20;99.90;;;;;;2612956;39;20804;-75
2022/01/22 03:34:22;;;;;;;33.00;17.20;;;5.20;99.90;;;;;;2614863;47;20434;-76
2022/01/22 03:36:48;;;;;;;30.00;19.60;;;5.10;99.90;;;;;;2612199;54;20562;-75
2022/01/22 03:39:14;;;;;;;31.83;20.97;;;5.20;99.90;;;;;;2608706;46;20587;-75
2022/01/22 03:41:41;;;;;;;35.20;22.43;;;5.20;99.90;;;;;;2612420;46;20514;-74
2022/01/22 03:44:08;;;;;;;19.87;14.10;;;5.30;99.90;;;;;;2614048;54;20443;-75
2022/01/22 03:46:41;;;;;;;26.43;17.47;;;5.20;99.90;;;;;;2615233;47;21039;-75
2022/01/22 03:49:10;;;;;;;34.40;20.03;;;5.20;99.90;;;;;;2612483;47;20433;-76
2022/01/22 03:51:36;;;;;;;27.20;18.87;;;5.20;99.90;;;;;;2614467;47;20490;-76
2022/01/22 03:54:03;;;;;;;29.97;19.30;;;5.20;99.90;;;;;;2613494;39;20837;-75
2022/01/22 03:56:29;;;;;;;27.33;18.90;;;5.20;99.90;;;;;;2614327;54;20427;-76
2022/01/22 03:59:10;;;;;;;28.03;17.87;;;5.30;99.90;;;;;;2613694;47;20476;-75
2022/01/22 04:04:37;;;;;;;27.93;17.40;;;5.10;99.90;;;;;;2614849;46;20499;-75
2022/01/22 04:10:07;;;;;;;21.67;14.47;;;5.20;99.90;;;;;;2613662;54;20415;-75
2022/01/22 04:15:06;;;;;;;28.23;17.60;;;5.20;99.90;;;;;;2615527;54;20411;-74
2022/01/22 04:25:34;;;;;;;27.03;17.30;;;5.30;99.90;;;;;;2615138;54;20422;-75
2022/01/22 04:28:01;;;;;;;29.00;17.13;;;5.40;99.90;;;;;;2614858;47;20526;-75
2022/01/22 04:30:28;;;;;;;30.03;18.73;;;5.30;99.90;;;;;;2615577;47;20988;-74
2022/01/22 04:32:54;;;;;;;24.83;13.07;;;5.40;99.90;;;;;;2614815;47;20163;-75
2022/01/22 04:35:22;;;;;;;15.90;12.20;;;5.30;99.90;;;;;;2608119;54;22867;-75
2022/01/22 04:37:48;;;;;;;27.17;17.63;;;5.20;99.90;;;;;;2613390;54;20187;-75
2022/01/22 04:40:15;;;;;;;23.43;16.87;;;5.30;99.90;;;;;;2614155;54;20983;-75
2022/01/22 04:42:42;;;;;;;23.43;13.00;;;5.30;99.90;;;;;;2614853;54;20400;-75
2022/01/22 04:45:30;;;;;;;18.57;11.33;;;5.30;99.90;;;;;;2614154;47;20412;-76
2022/01/22 04:56:11;;;;;;;33.17;16.87;;;5.20;99.90;;;;;;2613738;47;20383;-75
2022/01/22 04:58:36;;;;;;;30.10;16.10;;;5.30;99.90;;;;;;2613589;54;20433;-75
2022/01/22 05:01:03;;;;;;;25.83;17.17;;;5.30;99.90;;;;;;2613983;54;20692;-75
2022/01/22 05:04:00;;;;;;;25.47;17.97;;;5.30;99.90;;;;;;2613893;47;20396;-74
2022/01/22 05:06:49;;;;;;;21.43;14.93;;;5.30;99.90;;;;;;2614544;39;20852;-75
2022/01/22 05:09:41;;;;;;;30.10;19.80;;;5.30;99.90;;;;;;2612316;54;20980;-74
2022/01/22 05:12:09;;;;;;;33.03;18.70;;;5.30;99.90;;;;;;2612235;46;20420;-74
2022/01/22 05:14:38;;;;;;;28.80;17.50;;;5.30;99.90;;;;;;2613851;54;20403;-74
2022/01/22 05:17:07;;;;;;;24.30;17.00;;;5.40;99.90;;;;;;2615265;47;20431;-74
2022/01/22 05:19:48;;;;;;;25.83;17.13;;;5.50;99.90;;;;;;2614765;47;20462;-75
2022/01/22 05:24:48;;;;;;;26.00;19.23;;;5.60;99.90;;;;;;2615445;39;20863;-76
2022/01/22 05:38:45;;;;;;;24.40;17.63;;;5.50;99.90;;;;;;2612402;39;20855;-76
2022/01/22 05:41:12;;;;;;;27.60;15.77;;;5.50;99.90;;;;;;2614104;54;20503;-75
2022/01/22 05:43:37;;;;;;;25.90;18.80;;;5.50;99.90;;;;;;2614551;47;20420;-75
2022/01/22 05:46:03;;;;;;;26.33;16.07;;;5.60;99.90;;;;;;2615587;54;20426;-75
2022/01/22 05:48:29;;;;;;;33.00;20.00;;;5.50;99.90;;;;;;2615719;54;20250;-75
2022/01/22 05:51:00;;;;;;;40.70;19.53;;;5.50;99.90;;;;;;2613990;54;22148;-76
2022/01/22 05:53:40;;;;;;;28.23;18.07;;;5.60;99.90;;;;;;2615593;51;20419;-75
2022/01/22 06:01:35;;;;;;;27.73;16.20;;;5.60;99.90;;;;;;2613154;47;20468;-75
2022/01/22 06:04:15;;;;;;;26.50;14.47;;;5.60;99.90;;;;;;2615518;54;20423;-74
2022/01/22 06:06:41;;;;;;;24.10;16.90;;;5.60;99.90;;;;;;2614453;46;20458;-76
2022/01/22 06:09:10;;;;;;;37.47;21.03;;;5.60;99.90;;;;;;2615006;39;21048;-75
2022/01/22 06:11:54;;;;;;;31.97;19.97;;;5.70;99.90;;;;;;2615295;47;20451;-74
2022/01/22 06:14:23;;;;;;;30.20;18.70;;;5.80;99.90;;;;;;2614816;46;20493;-74
2022/01/22 06:16:49;;;;;;;31.70;19.90;;;5.70;99.90;;;;;;2616309;39;20839;-75
2022/01/22 06:19:30;;;;;;;30.27;19.00;;;5.80;99.90;;;;;;2615583;54;20455;-75
2022/01/22 06:21:56;;;;;;;28.27;19.20;;;5.90;99.90;;;;;;2615704;47;21048;-75
2022/01/22 06:24:23;;;;;;;32.30;18.60;;;5.90;99.90;;;;;;2616194;46;20895;-75
2022/01/22 06:26:52;;;;;;;32.20;18.90;;;6.00;99.90;;;;;;2614233;54;21311;-75
2022/01/22 06:29:19;;;;;;;32.13;18.30;;;5.90;99.90;;;;;;2615566;46;20406;-75
2022/01/22 06:31:45;;;;;;;30.00;18.70;;;5.90;99.90;;;;;;2615219;54;20446;-75
2022/01/22 06:34:11;;;;;;;24.70;16.30;;;5.80;99.90;;;;;;2612445;54;20538;-76
2022/01/22 06:36:39;;;;;;;28.30;19.23;;;5.80;99.90;;;;;;2613000;54;20427;-75
2022/01/22 06:39:13;;;;;;;32.53;17.03;;;5.90;99.90;;;;;;2613264;47;20431;-75
2022/01/22 06:41:58;;;;;;;41.03;19.40;;;5.90;99.90;;;;;;2614357;54;20419;-76
2022/01/22 06:44:34;;;;;;;28.23;17.67;;;5.80;99.90;;;;;;2615320;54;20399;-75
2022/01/22 06:47:24;;;;;;;33.10;17.33;;;5.80;99.90;;;;;;2615228;54;20419;-75
2022/01/22 06:50:09;;;;;;;29.13;17.10;;;5.80;99.90;;;;;;2614536;54;20515;-75
2022/01/22 06:52:57;;;;;;;33.90;17.90;;;5.80;99.90;;;;;;2614880;54;20419;-76
2022/01/22 06:55:45;;;;;;;29.43;16.43;;;5.90;99.90;;;;;;2614442;50;20975;-76
2022/01/22 06:58:15;;;;;;;34.77;17.97;;;6.00;99.90;;;;;;2615013;54;20420;-76
2022/01/22 07:00:53;;;;;;;29.23;17.97;;;5.90;99.90;;;;;;2611622;47;20419;-74
2022/01/22 07:03:22;;;;;;;32.37;17.90;;;5.80;99.90;;;;;;2614578;47;20423;-74
2022/01/22 07:05:56;;;;;;;30.13;18.07;;;5.90;99.90;;;;;;2614425;54;20486;-75
2022/01/22 07:08:25;;;;;;;31.20;17.90;;;6.00;99.90;;;;;;2615095;54;20431;-75
2022/01/22 07:10:58;;;;;;;30.93;18.43;;;6.00;99.90;;;;;;2613872;54;20435;-75
2022/01/22 07:13:24;;;;;;;31.80;19.10;;;5.90;99.90;;;;;;2614249;39;20899;-74
2022/01/22 07:15:51;;;;;;;36.43;19.40;;;5.90;99.90;;;;;;2612981;39;20893;-77
2022/01/22 07:18:20;;;;;;;30.73;18.40;;;5.80;99.90;;;;;;2613076;39;20801;-76
2022/01/22 07:20:48;;;;;;;27.27;17.50;;;5.80;99.90;;;;;;2611946;47;20444;-76
2022/01/22 07:26:03;;;;;;;29.40;18.37;;;5.80;99.90;;;;;;2612586;46;20423;-75
2022/01/22 07:28:37;;;;;;;28.80;18.93;;;5.80;99.90;;;;;;2612251;47;20458;-75
2022/01/22 07:31:03;;;;;;;27.23;16.43;;;5.80;99.90;;;;;;2611212;51;20435;-74
2022/01/22 07:33:32;;;;;;;29.17;17.33;;;5.90;99.90;;;;;;2611039;47;20462;-75
2022/01/22 07:35:59;;;;;;;25.73;15.80;;;5.90;99.90;;;;;;2613327;47;20427;-75
2022/01/22 07:38:25;;;;;;;28.20;18.80;;;5.80;99.90;;;;;;2614096;39;20847;-76
2022/01/22 07:40:51;;;;;;;31.60;15.90;;;5.70;99.90;;;;;;2610779;47;20462;-75
2022/01/22 07:43:24;;;;;;;29.60;16.37;;;5.80;99.90;;;;;;2610884;54;20187;-76
2022/01/22 07:46:09;;;;;;;34.70;19.57;;;5.80;99.90;;;;;;2615034;54;20427;-75
2022/01/22 07:48:47;;;;;;;30.27;17.00;;;6.00;99.90;;;;;;2613030;47;20437;-75
2022/01/22 07:51:51;;;;;;;37.43;17.63;;;6.20;99.90;;;;;;2611560;54;20435;-76
2022/01/22 07:54:17;;;;;;;33.60;18.40;;;6.00;99.90;;;;;;2611278;54;20454;-75
2022/01/22 07:57:07;;;;;;;31.10;16.30;;;6.00;99.90;;;;;;2614098;39;20615;-74
2022/01/22 07:59:33;;;;;;;21.87;13.13;;;5.90;99.90;;;;;;2613295;54;20595;-73
2022/01/22 08:02:02;;;;;;;34.57;17.77;;;5.90;99.90;;;;;;2610425;47;20447;-75
2022/01/22 08:04:48;;;;;;;28.03;18.67;;;5.90;99.90;;;;;;2611998;47;21476;-74
2022/01/22 08:07:32;;;;;;;32.70;17.50;;;5.90;99.90;;;;;;2610885;54;20450;-74
2022/01/22 08:10:24;;;;;;;27.00;16.87;;;5.80;99.90;;;;;;2610660;47;20436;-74
2022/01/22 08:12:51;;;;;;;28.20;17.43;;;5.80;99.90;;;;;;2612039;39;20858;-75
2022/01/22 08:15:18;;;;;;;33.73;17.27;;;5.80;99.90;;;;;;2609775;39;20819;-74
2022/01/22 08:17:44;;;;;;;32.67;19.60;;;5.80;99.90;;;;;;2612240;54;20545;-74
2022/01/22 08:20:16;;;;;;;27.93;18.23;;;5.90;99.90;;;;;;2610806;54;20423;-74
2022/01/22 08:22:51;;;;;;;37.17;17.53;;;6.00;99.90;;;;;;2611893;54;20375;-74
2022/01/22 08:25:38;;;;;;;26.27;17.70;;;5.90;99.90;;;;;;2612342;54;20464;-74
2022/01/22 08:31:18;;;;;;;27.10;13.97;;;5.80;99.90;;;;;;2613360;47;20427;-75
2022/01/22 08:36:32;;;;;;;30.23;18.17;;;6.00;99.90;;;;;;2613222;39;20994;-75
2022/01/22 08:38:58;;;;;;;34.00;17.30;;;5.90;99.90;;;;;;2611193;54;20423;-76
2022/01/22 08:41:26;;;;;;;33.23;16.90;;;5.90;99.90;;;;;;2611353;47;20465;-76
2022/01/22 08:43:54;;;;;;;30.57;17.17;;;5.90;99.90;;;;;;2612168;47;20427;-76
2022/01/22 08:46:20;;;;;;;22.20;13.73;;;6.10;99.90;;;;;;2613073;39;20578;-76
2022/01/22 08:48:47;;;;;;;30.07;19.10;;;6.00;99.90;;;;;;2615825;54;20396;-74
2022/01/22 08:51:13;;;;;;;30.23;18.83;;;6.10;99.90;;;;;;2615933;54;20428;-75
2022/01/22 08:53:39;;;;;;;29.80;18.87;;;6.20;99.90;;;;;;2615373;39;21185;-76
2022/01/22 08:56:07;;;;;;;39.60;18.80;;;6.20;99.90;;;;;;2614860;47;20420;-76
2022/01/22 08:58:33;;;;;;;29.03;17.20;;;6.30;99.90;;;;;;2614182;54;21206;-75
2022/01/22 09:01:08;;;;;;;29.03;18.13;;;6.40;99.90;;;;;;2614448;47;20423;-75
2022/01/22 09:03:37;;;;;;;28.40;17.80;;;6.40;99.90;;;;;;2614642;47;20423;-75
2022/01/22 09:06:17;;;;;;;27.17;17.27;;;6.40;99.90;;;;;;2614817;48;20466;-75
2022/01/22 09:09:13;;;;;;;27.27;16.27;;;6.40;99.90;;;;;;2616265;31;20908;-75
2022/01/22 09:11:54;;;;;;;22.20;14.20;;;6.40;99.90;;;;;;2614523;54;20519;-76
2022/01/22 09:14:34;;;;;;;20.90;12.10;;;6.20;99.90;;;;;;2612425;54;20420;-75
2022/01/22 09:17:01;;;;;;;23.33;14.80;;;6.10;99.90;;;;;;2612052;51;20428;-75
2022/01/22 09:19:33;;;;;;;25.87;17.50;;;6.10;99.90;;;;;;2614178;54;20449;-75
2022/01/22 09:22:05;;;;;;;25.70;16.43;;;6.30;99.90;;;;;;2613058;47;20424;-75
2022/01/22 09:24:32;;;;;;;27.63;16.97;;;6.40;99.90;;;;;;2614816;47;20431;-75
2022/01/22 09:27:01;;;;;;;19.03;11.90;;;6.40;99.90;;;;;;2613756;54;20426;-76
2022/01/22 09:29:28;;;;;;;19.43;13.33;;;6.20;99.90;;;;;;2612353;49;20498;-76
2022/01/22 09:31:54;;;;;;;26.27;14.57;;;6.20;99.90;;;;;;2612808;47;20428;-75
2022/01/22 09:34:40;;;;;;;27.13;14.70;;;6.10;99.90;;;;;;2615520;54;20430;-76
2022/01/22 09:37:35;;;;;;;30.70;15.77;;;6.20;99.90;;;;;;2612479;47;20964;-78
2022/01/22 09:40:13;;;;;;;29.43;15.87;;;6.30;99.90;;;;;;2614844;39;20789;-76
2022/01/22 09:43:00;;;;;;;25.90;16.37;;;6.50;99.90;;;;;;2614797;47;20411;-77
2022/01/22 09:45:45;;;;;;;28.87;16.60;;;6.30;99.90;;;;;;2611461;54;23496;-76
2022/01/22 09:48:24;;;;;;;40.83;18.33;;;6.40;99.90;;;;;;2612871;39;20696;-76
2022/01/22 09:51:01;;;;;;;32.13;18.77;;;6.40;99.90;;;;;;2612269;54;20477;-75
2022/01/22 09:53:44;;;;;;;45.40;21.37;;;6.20;99.90;;;;;;2611470;51;20546;-74
2022/01/22 09:56:31;;;;;;;37.57;20.03;;;6.40;99.90;;;;;;2611058;54;20410;-75
2022/01/22 09:59:15;;;;;;;36.90;22.57;;;6.30;99.90;;;;;;2612927;39;20724;-77
2022/01/22 10:02:10;;;;;;;41.67;23.73;;;6.30;99.90;;;;;;2610757;54;20423;-78
2022/01/22 10:04:38;;;;;;;40.37;24.17;;;6.30;99.90;;;;;;2608762;47;20441;-75
2022/01/22 10:07:24;;;;;;;42.73;25.90;;;6.30;99.90;;;;;;2612636;54;20519;-74
2022/01/22 10:10:08;;;;;;;38.17;19.83;;;6.30;99.90;;;;;;2612938;54;20523;-76
2022/01/22 10:12:54;;;;;;;43.77;24.60;;;6.30;99.90;;;;;;2612785;47;20478;-76
2022/01/22 10:15:35;;;;;;;37.80;22.47;;;6.30;99.90;;;;;;2613585;54;20434;-76
2022/01/22 10:18:07;;;;;;;37.20;22.83;;;6.40;99.90;;;;;;2614375;47;20427;-77
2022/01/22 10:20:40;;;;;;;34.37;20.30;;;6.50;99.90;;;;;;2613356;47;20487;-75
2022/01/22 10:23:17;;;;;;;38.47;23.20;;;6.40;99.90;;;;;;2612817;54;21977;-76
2022/01/22 10:25:51;;;;;;;39.93;24.77;;;6.50;99.90;;;;;;2611739;54;20411;-74
2022/01/22 10:28:24;;;;;;;38.67;23.67;;;6.70;99.90;;;;;;2611588;54;20415;-75
2022/01/22 10:30:58;;;;;;;37.17;24.40;;;6.80;99.90;;;;;;2611543;47;20967;-75
2022/01/22 10:33:39;;;;;;;32.30;21.17;;;6.80;99.90;;;;;;2611156;47;20500;-75
2022/01/22 10:36:24;;;;;;;34.00;18.20;;;6.80;99.90;;;;;;2612435;54;21849;-76
2022/01/22 10:39:22;;;;;;;32.50;20.30;;;6.60;99.90;;;;;;2611910;54;20413;-76
2022/01/22 10:41:48;;;;;;;20.80;14.80;;;6.70;99.90;;;;;;2612622;54;20423;-77
2022/01/22 10:44:18;;;;;;;27.00;19.03;;;6.70;99.90;;;;;;2614131;54;20450;-75
2022/01/22 10:46:49;;;;;;;26.40;16.97;;;6.80;99.90;;;;;;2611611;47;20174;-76
2022/01/22 10:49:22;;;;;;;24.77;17.63;;;6.70;99.90;;;;;;2612463;54;20431;-76
2022/01/22 10:52:03;;;;;;;26.00;15.77;;;6.80;99.90;;;;;;2612179;54;20630;-75
2022/01/22 10:54:31;;;;;;;25.00;16.30;;;6.80;99.90;;;;;;2612212;47;20411;-76
2022/01/22 10:57:23;;;;;;;25.33;17.30;;;6.80;99.90;;;;;;2610343;46;20427;-75
2022/01/22 10:59:52;;;;;;;25.37;16.70;;;7.10;99.90;;;;;;2611737;47;20428;-75
2022/01/22 11:02:37;;;;;;;29.20;18.20;;;7.70;99.90;;;;;;2612245;54;20434;-76
2022/01/22 11:05:04;;;;;;;23.40;15.77;;;8.10;99.90;;;;;;2612679;39;20824;-75
2022/01/22 11:07:30;;;;;;;19.87;14.30;;;7.80;99.90;;;;;;2609702;54;20451;-75
2022/01/22 11:09:57;;;;;;;21.33;14.90;;;7.70;99.90;;;;;;2611984;54;20468;-76
2022/01/22 11:12:23;;;;;;;23.23;14.00;;;7.50;99.90;;;;;;2612115;47;20162;-76
2022/01/22 11:14:49;;;;;;;18.80;13.07;;;7.40;99.90;;;;;;2611689;47;20412;-77
2022/01/22 11:17:15;;;;;;;21.43;13.53;;;7.40;99.90;;;;;;2611335;54;20418;-76
2022/01/22 11:19:45;;;;;;;19.73;13.47;;;7.60;99.90;;;;;;2611763;54;20426;-75
2022/01/22 11:22:16;;;;;;;15.17;12.10;;;7.70;99.90;;;;;;2611317;39;20566;-76
2022/01/22 11:24:46;;;;;;;17.77;13.17;;;8.00;99.90;;;;;;2611838;39;20850;-76
2022/01/22 11:27:21;;;;;;;14.90;11.20;;;8.40;99.90;;;;;;2610382;54;21534;-76
2022/01/22 11:29:47;;;;;;;16.80;13.60;;;8.10;99.90;;;;;;2610148;54;20429;-76
2022/01/22 11:32:14;;;;;;;17.13;11.67;;;8.00;99.90;;;;;;2611013;51;20454;-77
2022/01/22 11:34:43;;;;;;;18.20;10.40;;;7.80;99.90;;;;;;2610917;54;20150;-78
2022/01/22 11:37:31;;;;;;;14.87;10.90;;;7.70;99.90;;;;;;2613011;54;20448;-77
2022/01/22 11:40:21;;;;;;;18.40;10.90;;;7.60;99.90;;;;;;2609982;54;20407;-76
2022/01/22 11:42:55;;;;;;;13.90;11.93;;;7.60;99.90;;;;;;2611129;54;20418;-77
2022/01/22 11:45:29;;;;;;;13.23;9.93;;;7.50;99.90;;;;;;2610000;47;20459;-76
2022/01/22 11:48:16;;;;;;;17.07;12.97;;;7.50;99.90;;;;;;2610244;39;20835;-77
2022/01/22 11:50:48;;;;;;;18.50;12.53;;;7.40;99.90;;;;;;2628542;36;20950;-76
2022/01/22 11:53:29;;;;;;;19.67;13.10;;;7.40;99.90;;;;;;2610366;54;20420;-78
2022/01/22 11:56:10;;;;;;;12.33;10.63;;;7.40;99.90;;;;;;2610198;54;20400;-77
2022/01/22 11:59:03;;;;;;;14.63;10.10;;;7.30;99.90;;;;;;2609598;54;20980;-78
2022/01/22 12:01:51;;;;;;;14.33;9.90;;;7.20;99.90;;;;;;2608847;54;20380;-76
2022/01/22 12:04:21;;;;;;;12.93;9.10;;;7.30;99.90;;;;;;2608085;54;20546;-76
2022/01/22 12:07:05;;;;;;;16.00;10.90;;;7.30;99.90;;;;;;2609424;54;20520;-76
2022/01/22 12:09:42;;;;;;;14.13;9.77;;;7.40;99.90;;;;;;2610803;54;20424;-78
2022/01/22 12:15:15;;;;;;;13.70;11.00;;;7.30;99.90;;;;;;2609321;39;22233;-76
2022/01/22 12:17:54;;;;;;;16.60;9.27;;;7.30;99.90;;;;;;2609780;54;20454;-76
2022/01/22 12:23:08;;;;;;;18.00;9.87;;;7.20;99.90;;;;;;2608937;51;20420;-77
2022/01/22 12:25:33;;;;;;;14.37;9.83;;;7.20;99.90;;;;;;2610098;54;20419;-76
2022/01/22 12:27:59;;;;;;;14.63;9.47;;;7.10;99.90;;;;;;2608652;54;20424;-76
2022/01/22 12:30:39;;;;;;;14.67;11.47;;;7.10;99.90;;;;;;2609579;54;20154;-76
2022/01/22 12:33:09;;;;;;;10.10;8.07;;;7.00;99.90;;;;;;2609171;54;20178;-74
2022/01/22 12:35:48;;;;;;;15.57;10.80;;;6.90;99.90;;;;;;2609170;54;20472;-76
2022/01/22 12:38:36;;;;;;;22.20;11.60;;;6.80;99.90;;;;;;2608605;54;20479;-76
2022/01/22 12:44:06;;;;;;;21.67;12.80;;;7.00;99.90;;;;;;2610618;47;20974;-76
2022/01/22 12:46:34;;;;;;;18.77;12.60;;;7.20;99.90;;;;;;2610937;54;21060;-76
2022/01/22 12:49:02;;;;;;;21.83;13.43;;;7.30;99.90;;;;;;2610551;39;22460;-76
2022/01/22 12:51:28;;;;;;;16.23;9.43;;;7.30;99.90;;;;;;2610555;54;20419;-76
2022/01/22 12:53:54;;;;;;;16.90;12.80;;;7.10;99.90;;;;;;2608801;54;20423;-76
2022/01/22 12:59:06;;;;;;;17.23;11.30;;;7.30;99.90;;;;;;2612420;39;20806;-75
2022/01/22 13:01:34;;;;;;;35.57;19.27;;;7.30;99.90;;;;;;2609645;39;20853;-75
2022/01/22 13:04:04;;;;;;;19.43;12.77;;;7.30;99.90;;;;;;2609943;39;20831;-76
2022/01/22 13:06:40;;;;;;;9.27;7.27;;;7.10;99.90;;;;;;2610480;54;20439;-75
2022/01/22 13:09:48;;;;;;;19.57;10.53;;;7.10;99.90;;;;;;2611330;39;20835;-76
2022/01/22 13:12:15;;;;;;;26.47;10.63;;;7.10;99.90;;;;;;2610972;54;20440;-76
2022/01/22 13:14:42;;;;;;;18.53;10.63;;;7.10;99.90;;;;;;2611668;54;20429;-76
2022/01/22 13:17:13;;;;;;;17.47;11.10;;;7.10;99.90;;;;;;2609252;47;20428;-77
2022/01/22 13:19:40;;;;;;;15.37;12.33;;;7.20;99.90;;;;;;2613500;54;20418;-76
2022/01/22 13:22:06;;;;;;;20.97;12.50;;;7.10;99.90;;;;;;2611212;54;20430;-76
2022/01/22 13:24:35;;;;;;;20.13;12.00;;;7.10;99.90;;;;;;2611251;39;20966;-76
2022/01/22 13:27:13;;;;;;;17.53;10.43;;;6.90;99.90;;;;;;2610218;51;20432;-76
2022/01/22 13:29:52;;;;;;;15.67;10.10;;;7.00;99.90;;;;;;2610832;54;20520;-76
2022/01/22 13:48:31;;;;;;;17.03;11.60;;;7.00;99.90;;;;;;2609889;54;20439;-76
2022/01/22 13:51:00;;;;;;;14.20;10.97;;;7.10;99.90;;;;;;2610726;54;20454;-76
2022/01/22 13:53:27;;;;;;;22.40;12.80;;;7.00;99.90;;;;;;2610914;39;21225;-76
2022/01/22 13:56:11;;;;;;;17.43;11.57;;;6.80;99.90;;;;;;2611262;54;20423;-77
2022/01/22 13:58:38;;;;;;;26.87;18.20;;;6.90;99.90;;;;;;2610753;54;20431;-77
2022/01/22 14:01:17;;;;;;;20.77;12.73;;;7.00;99.90;;;;;;2610623;54;20419;-77
2022/01/22 14:03:45;;;;;;;13.60;8.30;;;7.00;99.90;;;;;;2610024;47;20411;-77
2022/01/22 14:06:11;;;;;;;19.50;11.20;;;7.00;99.90;;;;;;2608010;47;20448;-75
2022/01/22 14:08:37;;;;;;;18.50;11.97;;;6.90;99.90;;;;;;2610261;54;20394;-75
2022/01/22 14:11:11;;;;;;;16.77;11.83;;;6.90;99.90;;;;;;2609828;54;20420;-76
2022/01/22 14:13:39;;;;;;;19.80;12.37;;;6.90;99.90;;;;;;2612896;54;20150;-77
2022/01/22 14:16:19;;;;;;;17.23;11.53;;;7.00;99.90;;;;;;2608879;47;20631;-76
2022/01/22 14:18:46;;;;;;;11.23;9.47;;;7.10;99.90;;;;;;2610688;54;20485;-76
2022/01/22 14:21:20;;;;;;;20.70;11.80;;;7.00;99.90;;;;;;2611687;54;20393;-75
2022/01/22 14:23:50;;;;;;;22.37;12.10;;;6.80;99.90;;;;;;2611532;54;20415;-75
2022/01/22 14:26:33;;;;;;;21.40;11.37;;;6.90;99.90;;;;;;2611195;39;20733;-75
2022/01/22 14:29:07;;;;;;;17.00;10.43;;;6.90;99.90;;;;;;2608595;47;20427;-75
2022/01/22 14:31:43;;;;;;;14.50;11.30;;;6.80;99.90;;;;;;2611090;39;20827;-75
2022/01/22 14:34:33;;;;;;;15.90;11.27;;;6.90;99.90;;;;;;2610104;47;20442;-76
2022/01/22 14:37:01;;;;;;;15.30;11.00;;;7.00;99.90;;;;;;2610192;39;20828;-75
2022/01/22 14:45:23;;;;;;;17.20;10.33;;;7.20;99.90;;;;;;2611725;54;20436;-75
2022/01/22 14:47:54;;;;;;;16.50;10.53;;;7.10;99.90;;;;;;2612079;39;20799;-76
2022/01/22 14:50:21;;;;;;;13.13;10.17;;;6.90;99.90;;;;;;2610390;49;20427;-76
2022/01/22 14:52:50;;;;;;;18.53;11.97;;;7.10;99.90;;;;;;2611001;51;20499;-76
2022/01/22 14:55:16;;;;;;;14.70;11.57;;;7.10;99.90;;;;;;2610499;46;20451;-76
2022/01/22 14:57:42;;;;;;;11.70;10.50;;;6.90;99.90;;;;;;2610541;47;21224;-75
2022/01/22 15:00:11;;;;;;;15.60;11.50;;;6.90;99.90;;;;;;2610868;39;21059;-76
2022/01/22 15:02:39;;;;;;;13.30;10.70;;;7.00;99.90;;;;;;2609798;54;20434;-76
2022/01/22 15:05:12;;;;;;;14.40;9.77;;;7.20;99.90;;;;;;2610949;47;20432;-76
2022/01/22 15:07:38;;;;;;;18.57;10.97;;;7.10;99.90;;;;;;2615014;47;20416;-76
2022/01/22 15:10:07;;;;;;;14.50;11.80;;;7.10;99.90;;;;;;2615346;54;20379;-76
2022/01/22 15:12:34;;;;;;;17.70;12.63;;;7.10;99.90;;;;;;2616340;39;20785;-77
2022/01/22 15:14:59;;;;;;;17.93;13.07;;;7.30;99.90;;;;;;2614459;54;20423;-76
2022/01/22 15:17:30;;;;;;;18.93;13.53;;;7.10;99.90;;;;;;2614647;54;20409;-76
2022/01/22 15:19:56;;;;;;;24.40;13.17;;;7.00;99.90;;;;;;2613323;51;20453;-76
2022/01/22 15:22:23;;;;;;;20.30;13.80;;;7.00;99.90;;;;;;2613552;54;20445;-77